Time,TemperatureF,DewpointF,PressureIn,WindDirection,WindDirectionDegrees,WindSpeedMPH,WindSpeedGustMPH,Humidity,HourlyPrecipIn,Conditions,Clouds,dailyrainin,SolarRadiationWatts/m^2,SoftwareType,DateUTC
2013-01-07 00:22:00,27.0,21.0,-100.00,WSW,252,22.0,30.0,77,0.00,,,0.00,0.000000,,2013-01-07 06:22:00,
2013-01-07 00:32:00,27.0,21.0,-100.00,WSW,252,22.0,30.0,77,0.00,,,0.00,0.000000,,2013-01-07 06:32:00,
2013-01-07 00:42:00,27.0,21.0,-100.00,WSW,252,22.0,30.0,77,0.00,,,0.00,0.000000,,2013-01-07 06:42:00,
2013-01-07 00:52:00,27.0,21.0,-100.00,WSW,252,22.0,30.0,77,0.00,,,0.00,0.000000,,2013-01-07 06:52:00,
2013-01-07 01:22:00,25.0,20.0,-100.00,WSW,253,18.0,27.0,81,0.00,,,0.00,0.000000,,2013-01-07 07:22:00,
2013-01-07 01:33:00,25.0,20.0,-100.00,WSW,253,18.0,27.0,81,0.00,,,0.00,0.000000,,2013-01-07 07:33:00,
2013-01-07 01:42:00,25.0,20.0,-100.00,WSW,253,18.0,27.0,81,0.00,,,0.00,0.000000,,2013-01-07 07:42:00,
2013-01-07 01:52:00,25.0,20.0,-100.00,WSW,253,18.0,27.0,81,0.00,,,0.00,0.000000,,2013-01-07 07:52:00,
2013-01-07 02:22:00,24.0,19.0,-100.00,WSW,253,17.0,23.0,82,0.00,,,0.00,0.000000,,2013-01-07 08:22:00,
2013-01-07 02:32:00,24.0,19.0,-100.00,WSW,253,17.0,23.0,82,0.00,,,0.00,0.000000,,2013-01-07 08:32:00,
2013-01-07 02:42:00,24.0,19.0,-100.00,WSW,253,17.0,23.0,82,0.00,,,0.00,0.000000,,2013-01-07 08:42:00,
2013-01-07 02:52:00,24.0,19.0,-100.00,WSW,253,17.0,23.0,82,0.00,,,0.00,0.000000,,2013-01-07 08:52:00,
2013-01-07 03:22:00,22.0,16.0,-100.00,WSW,254,15.0,21.0,79,0.00,,,0.00,0.000000,,2013-01-07 09:22:00,
2013-01-07 03:32:00,22.0,16.0,-100.00,WSW,254,15.0,21.0,79,0.00,,,0.00,0.000000,,2013-01-07 09:32:00,
2013-01-07 03:42:00,22.0,16.0,-100.00,WSW,254,15.0,21.0,79,0.00,,,0.00,0.000000,,2013-01-07 09:42:00,
2013-01-07 03:52:00,22.0,16.0,-100.00,WSW,254,15.0,21.0,79,0.00,,,0.00,0.000000,,2013-01-07 09:52:00,
2013-01-07 04:22:00,20.0,14.0,-100.00,WSW,239,14.0,18.0,78,0.00,,,0.00,0.000000,,2013-01-07 10:22:00,
2013-01-07 04:32:00,20.0,14.0,-100.00,WSW,239,14.0,18.0,78,0.00,,,0.00,0.000000,,2013-01-07 10:32:00,
2013-01-07 04:42:00,20.0,14.0,-100.00,WSW,239,14.0,18.0,78,0.00,,,0.00,0.000000,,2013-01-07 10:42:00,
2013-01-07 04:52:00,20.0,14.0,-100.00,WSW,239,14.0,18.0,78,0.00,,,0.00,0.000000,,2013-01-07 10:52:00,
2013-01-07 05:23:00,26.0,19.0,-100.00,WSW,257,12.0,16.0,75,0.00,,,0.00,0.000000,,2013-01-07 11:23:00,
2013-01-07 05:33:00,26.0,19.0,-100.00,WSW,257,12.0,16.0,75,0.00,,,0.00,0.000000,,2013-01-07 11:33:00,
2013-01-07 05:43:00,26.0,19.0,-100.00,WSW,257,12.0,16.0,75,0.00,,,0.00,0.000000,,2013-01-07 11:43:00,
2013-01-07 05:53:00,26.0,19.0,-100.00,WSW,257,12.0,16.0,75,0.00,,,0.00,0.000000,,2013-01-07 11:53:00,
2013-01-07 06:22:00,28.0,23.0,-100.00,West,260,13.0,15.0,80,0.00,,,0.00,0.000000,,2013-01-07 12:22:00,
2013-01-07 06:33:00,28.0,23.0,-100.00,West,260,13.0,15.0,80,0.00,,,0.00,0.000000,,2013-01-07 12:33:00,
2013-01-07 06:43:00,28.0,23.0,-100.00,West,260,13.0,15.0,80,0.00,,,0.00,0.000000,,2013-01-07 12:43:00,
2013-01-07 06:52:00,28.0,23.0,-100.00,West,260,13.0,15.0,80,0.00,,,0.00,0.000000,,2013-01-07 12:52:00,
2013-01-07 07:23:00,27.0,20.0,-100.00,West,273,18.0,21.0,73,0.00,,,0.00,0.000000,,2013-01-07 13:23:00,
2013-01-07 07:33:00,27.0,20.0,-100.00,West,273,18.0,21.0,73,0.00,,,0.00,0.000000,,2013-01-07 13:33:00,
2013-01-07 07:42:00,27.0,20.0,-100.00,West,273,18.0,21.0,73,0.00,,,0.00,0.000000,,2013-01-07 13:42:00,
2013-01-07 07:52:00,27.0,20.0,-100.00,West,273,18.0,21.0,73,0.00,,,0.00,0.000000,,2013-01-07 13:52:00,
2013-01-07 08:22:00,25.0,18.0,-100.00,West,269,15.0,22.0,74,0.00,,,0.00,0.000000,,2013-01-07 14:22:00,
2013-01-07 08:33:00,25.0,18.0,-100.00,West,269,15.0,22.0,74,0.00,,,0.00,0.000000,,2013-01-07 14:33:00,
2013-01-07 08:42:00,25.0,18.0,-100.00,West,269,15.0,22.0,74,0.00,,,0.00,0.000000,,2013-01-07 14:42:00,
2013-01-07 08:53:00,25.0,18.0,-100.00,West,269,15.0,22.0,74,0.00,,,0.00,0.000000,,2013-01-07 14:53:00,
2013-01-07 09:22:00,25.0,18.0,-100.00,West,264,14.0,18.0,75,0.00,,,0.00,12.000000,,2013-01-07 15:22:00,
2013-01-07 09:33:00,25.0,18.0,-100.00,West,264,14.0,18.0,75,0.00,,,0.00,12.000000,,2013-01-07 15:33:00,
2013-01-07 09:43:00,25.0,18.0,-100.00,West,264,14.0,18.0,75,0.00,,,0.00,12.000000,,2013-01-07 15:43:00,
2013-01-07 09:53:00,25.0,18.0,-100.00,West,264,14.0,18.0,75,0.00,,,0.00,12.000000,,2013-01-07 15:53:00,
2013-01-07 10:22:00,26.0,18.0,-100.00,WSW,252,15.0,19.0,71,0.00,,,0.00,176.000000,,2013-01-07 16:22:00,
2013-01-07 10:33:00,26.0,18.0,-100.00,WSW,252,15.0,19.0,71,0.00,,,0.00,176.000000,,2013-01-07 16:33:00,
2013-01-07 10:43:00,26.0,18.0,-100.00,WSW,252,15.0,19.0,71,0.00,,,0.00,176.000000,,2013-01-07 16:43:00,
2013-01-07 10:53:00,26.0,18.0,-100.00,WSW,252,15.0,19.0,71,0.00,,,0.00,176.000000,,2013-01-07 16:53:00,
2013-01-07 11:23:00,28.0,20.0,-100.00,West,259,14.0,19.0,70,0.00,,,0.00,336.000000,,2013-01-07 17:23:00,
2013-01-07 11:33:00,28.0,20.0,-100.00,West,259,14.0,19.0,70,0.00,,,0.00,336.000000,,2013-01-07 17:33:00,
2013-01-07 11:42:00,28.0,20.0,-100.00,West,259,14.0,19.0,70,0.00,,,0.00,336.000000,,2013-01-07 17:42:00,
2013-01-07 11:53:00,28.0,20.0,-100.00,West,259,14.0,19.0,70,0.00,,,0.00,336.000000,,2013-01-07 17:53:00,
2013-01-07 12:23:00,28.0,19.0,-100.00,WSW,255,13.0,16.0,68,0.00,,,0.00,324.000000,,2013-01-07 18:23:00,
2013-01-07 12:33:00,28.0,19.0,-100.00,WSW,255,13.0,16.0,68,0.00,,,0.00,324.000000,,2013-01-07 18:33:00,
2013-01-07 12:42:00,28.0,19.0,-100.00,WSW,255,13.0,16.0,68,0.00,,,0.00,324.000000,,2013-01-07 18:42:00,
2013-01-07 12:52:00,28.0,19.0,-100.00,WSW,255,13.0,16.0,68,0.00,,,0.00,324.000000,,2013-01-07 18:52:00,
2013-01-07 13:23:00,31.0,21.0,-100.00,West,263,17.0,21.0,66,0.00,,,0.00,360.000000,,2013-01-07 19:23:00,
2013-01-07 13:33:00,31.0,21.0,-100.00,West,263,17.0,21.0,66,0.00,,,0.00,360.000000,,2013-01-07 19:33:00,
2013-01-07 13:43:00,31.0,21.0,-100.00,West,263,17.0,21.0,66,0.00,,,0.00,360.000000,,2013-01-07 19:43:00,
2013-01-07 13:52:00,31.0,21.0,-100.00,West,263,17.0,21.0,66,0.00,,,0.00,360.000000,,2013-01-07 19:52:00,
2013-01-07 14:23:00,29.0,19.0,-100.00,West,260,14.0,21.0,67,0.00,,,0.00,369.000000,,2013-01-07 20:23:00,
2013-01-07 14:33:00,29.0,19.0,-100.00,West,260,14.0,21.0,67,0.00,,,0.00,369.000000,,2013-01-07 20:33:00,
2013-01-07 14:42:00,29.0,19.0,-100.00,West,260,14.0,21.0,67,0.00,,,0.00,369.000000,,2013-01-07 20:42:00,
2013-01-07 14:52:00,29.0,19.0,-100.00,West,260,14.0,21.0,67,0.00,,,0.00,369.000000,,2013-01-07 20:52:00,
2013-01-07 15:23:00,29.0,20.0,-100.00,West,263,15.0,20.0,70,0.00,,,0.00,301.000000,,2013-01-07 21:23:00,
2013-01-07 15:33:00,29.0,20.0,-100.00,West,263,15.0,20.0,70,0.00,,,0.00,301.000000,,2013-01-07 21:33:00,
2013-01-07 15:43:00,29.0,20.0,-100.00,West,263,15.0,20.0,70,0.00,,,0.00,301.000000,,2013-01-07 21:43:00,
2013-01-07 15:52:00,29.0,20.0,-100.00,West,263,15.0,20.0,70,0.00,,,0.00,301.000000,,2013-01-07 21:52:00,
2013-01-07 16:23:00,29.0,21.0,-100.00,WSW,251,14.0,17.0,72,0.00,,,0.00,180.000000,,2013-01-07 22:23:00,
2013-01-07 16:33:00,29.0,21.0,-100.00,WSW,251,14.0,17.0,72,0.00,,,0.00,180.000000,,2013-01-07 22:33:00,
2013-01-07 16:42:00,29.0,21.0,-100.00,WSW,251,14.0,17.0,72,0.00,,,0.00,180.000000,,2013-01-07 22:42:00,
2013-01-07 16:52:00,29.0,21.0,-100.00,WSW,251,14.0,17.0,72,0.00,,,0.00,180.000000,,2013-01-07 22:52:00,
2013-01-07 17:22:00,28.0,22.0,-100.00,WSW,249,12.0,16.0,77,0.00,,,0.00,33.000000,,2013-01-07 23:22:00,
2013-01-07 17:33:00,28.0,22.0,-100.00,WSW,249,12.0,16.0,77,0.00,,,0.00,33.000000,,2013-01-07 23:33:00,
2013-01-07 17:43:00,28.0,22.0,-100.00,WSW,249,12.0,16.0,77,0.00,,,0.00,33.000000,,2013-01-07 23:43:00,
2013-01-07 17:53:00,28.0,22.0,-100.00,WSW,249,12.0,16.0,77,0.00,,,0.00,33.000000,,2013-01-07 23:53:00,
2013-01-07 18:22:00,28.0,22.0,-100.00,WSW,256,13.0,16.0,78,0.00,,,0.00,1.000000,,2013-01-08 00:22:00,
2013-01-07 18:33:00,28.0,22.0,-100.00,WSW,256,13.0,16.0,78,0.00,,,0.00,1.000000,,2013-01-08 00:33:00,
2013-01-07 18:42:00,28.0,22.0,-100.00,WSW,256,13.0,16.0,78,0.00,,,0.00,1.000000,,2013-01-08 00:42:00,
2013-01-07 18:52:00,28.0,22.0,-100.00,WSW,256,13.0,16.0,78,0.00,,,0.00,1.000000,,2013-01-08 00:52:00,
2013-01-07 19:22:00,28.0,23.0,-100.00,WSW,253,14.0,16.0,80,0.00,,,0.00,0.000000,,2013-01-08 01:22:00,
2013-01-07 19:33:00,28.0,23.0,-100.00,WSW,253,14.0,16.0,80,0.00,,,0.00,0.000000,,2013-01-08 01:33:00,
2013-01-07 19:42:00,28.0,23.0,-100.00,WSW,253,14.0,16.0,80,0.00,,,0.00,0.000000,,2013-01-08 01:42:00,
2013-01-07 19:52:00,28.0,23.0,-100.00,WSW,253,14.0,16.0,80,0.00,,,0.00,0.000000,,2013-01-08 01:52:00,
2013-01-07 20:22:00,27.0,21.0,-100.00,West,269,15.0,19.0,79,0.00,,,0.00,0.000000,,2013-01-08 02:22:00,
2013-01-07 20:33:00,27.0,21.0,-100.00,West,269,15.0,19.0,79,0.00,,,0.00,0.000000,,2013-01-08 02:33:00,
2013-01-07 20:42:00,27.0,21.0,-100.00,West,269,15.0,19.0,79,0.00,,,0.00,0.000000,,2013-01-08 02:42:00,
2013-01-07 20:53:00,27.0,21.0,-100.00,West,269,15.0,19.0,79,0.00,,,0.00,0.000000,,2013-01-08 02:53:00,
2013-01-07 21:22:00,25.0,20.0,-100.00,West,266,11.0,15.0,82,0.00,,,0.00,0.000000,,2013-01-08 03:22:00,
2013-01-07 21:32:00,25.0,20.0,-100.00,West,266,11.0,15.0,82,0.00,,,0.00,0.000000,,2013-01-08 03:32:00,
2013-01-07 21:43:00,25.0,20.0,-100.00,West,266,11.0,15.0,82,0.00,,,0.00,0.000000,,2013-01-08 03:43:00,
2013-01-07 21:52:00,25.0,20.0,-100.00,West,266,11.0,15.0,82,0.00,,,0.00,0.000000,,2013-01-08 03:52:00,
2013-01-07 22:22:00,24.0,19.0,-100.00,West,267,10.0,12.0,82,0.00,,,0.00,0.000000,,2013-01-08 04:22:00,
2013-01-07 22:32:00,24.0,19.0,-100.00,West,267,10.0,12.0,82,0.00,,,0.00,0.000000,,2013-01-08 04:32:00,
2013-01-07 22:42:00,24.0,19.0,-100.00,West,267,10.0,12.0,82,0.00,,,0.00,0.000000,,2013-01-08 04:42:00,
2013-01-07 22:52:00,24.0,19.0,-100.00,West,267,10.0,12.0,82,0.00,,,0.00,0.000000,,2013-01-08 04:52:00,
2013-01-07 23:22:00,24.0,20.0,-100.00,WSW,255,6.0,10.0,86,0.00,,,0.00,0.000000,,2013-01-08 05:22:00,
2013-01-07 23:33:00,24.0,20.0,-100.00,WSW,255,6.0,10.0,86,0.00,,,0.00,0.000000,,2013-01-08 05:33:00,
2013-01-07 23:42:00,24.0,20.0,-100.00,WSW,255,6.0,10.0,86,0.00,,,0.00,0.000000,,2013-01-08 05:42:00,
2013-01-07 23:53:00,24.0,20.0,-100.00,WSW,255,6.0,10.0,86,0.00,,,0.00,0.000000,,2013-01-08 05:53:00,